Time;durP1;ratioP1;P1;durP2;ratioP2;P2;SDS_P1;SDS_P2;PMS_P1;PMS_P2;Temp;Humidity;BMP_temperature;BMP_pressure;BME280_temperature;BME280_humidity;BME280_pressure;Samples;Min_cycle;Max_cycle;Signal;HPM_P1;HPM_P2
2022/06/17 00:00:24;;;;;;;0.50;0.40;;;16.00;99.90;;;;;;5073581;28;20546;-79
2022/06/17 00:02:51;;;;;;;0.50;0.40;;;15.90;99.90;;;;;;5074442;28;20485;-80
2022/06/17 00:05:18;;;;;;;0.50;0.40;;;15.90;99.90;;;;;;5073906;28;20494;-80
2022/06/17 00:07:45;;;;;;;0.50;0.40;;;15.80;99.90;;;;;;5073478;28;20519;-80
2022/06/17 00:10:20;;;;;;;0.50;0.40;;;16.00;99.90;;;;;;5073593;28;20522;-78
2022/06/17 00:12:49;;;;;;;0.50;0.40;;;16.10;99.90;;;;;;5073662;28;20471;-79
2022/06/17 00:15:16;;;;;;;0.50;0.40;;;16.10;99.90;;;;;;5073027;28;20467;-79
2022/06/17 00:17:47;;;;;;;0.50;0.40;;;16.10;99.90;;;;;;5073688;28;20435;-79
2022/06/17 00:20:17;;;;;;;0.50;0.40;;;16.00;99.90;;;;;;5072999;28;20441;-77
2022/06/17 00:22:45;;;;;;;0.50;0.40;;;15.90;99.90;;;;;;5073924;28;20538;-78
2022/06/17 00:25:20;;;;;;;0.50;0.40;;;15.80;99.90;;;;;;5073422;28;20554;-80
2022/06/17 00:27:48;;;;;;;0.50;0.40;;;15.90;99.90;;;;;;5073650;28;20424;-79
2022/06/17 00:30:18;;;;;;;0.50;0.30;;;15.90;99.90;;;;;;5073794;28;20539;-78
2022/06/17 00:32:45;;;;;;;0.50;0.40;;;15.90;99.90;;;;;;5073199;28;20846;-80
2022/06/17 00:35:13;;;;;;;0.50;0.40;;;15.80;99.90;;;;;;5073193;28;20484;-80
2022/06/17 00:37:41;;;;;;;0.50;0.40;;;15.80;99.90;;;;;;5073334;28;20529;-80
2022/06/17 00:40:14;;;;;;;0.50;0.40;;;15.70;99.90;;;;;;5074076;28;20446;-80
2022/06/17 00:42:42;;;;;;;0.50;0.30;;;15.80;99.90;;;;;;5078392;28;20535;-80
2022/06/17 00:45:21;;;;;;;0.50;0.40;;;15.70;99.90;;;;;;5077314;28;20487;-79
2022/06/17 00:47:54;;;;;;;0.50;0.40;;;15.80;99.90;;;;;;5077546;28;20524;-78
2022/06/17 00:50:28;;;;;;;0.50;0.40;;;15.90;99.90;;;;;;5077792;28;20434;-79
2022/06/17 00:53:05;;;;;;;0.50;0.40;;;15.80;99.90;;;;;;5078203;28;20433;-80
2022/06/17 00:55:42;;;;;;;0.50;0.30;;;15.80;99.90;;;;;;5075187;28;20463;-78
2022/06/17 00:58:14;;;;;;;0.50;0.30;;;15.80;99.90;;;;;;5075742;28;20813;-78
2022/06/17 01:00:44;;;;;;;0.50;0.30;;;16.00;99.90;;;;;;5075333;28;20520;-78
2022/06/17 01:03:16;;;;;;;0.50;0.40;;;16.10;99.90;;;;;;5075431;28;20471;-78
2022/06/17 01:05:47;;;;;;;0.50;0.30;;;16.10;99.90;;;;;;5075113;28;20495;-77
2022/06/17 01:09:56;;;;;;;0.50;0.37;;;16.20;99.90;;;;;;5074877;28;20471;-78
2022/06/17 01:11:07;;;;;;;0.50;0.40;;;16.20;99.90;;;;;;5074943;28;20441;-78
2022/06/17 01:13:34;;;;;;;0.50;0.40;;;16.20;99.90;;;;;;5075937;28;20854;-78
2022/06/17 01:16:03;;;;;;;0.50;0.40;;;16.20;99.90;;;;;;5075095;28;20541;-79
2022/06/17 01:18:34;;;;;;;0.50;0.40;;;16.20;99.90;;;;;;5075117;28;20480;-78
2022/06/17 01:21:09;;;;;;;0.50;0.40;;;16.20;99.90;;;;;;5076140;28;20452;-78
2022/06/17 01:23:38;;;;;;;0.50;0.40;;;16.20;99.90;;;;;;5075439;28;20904;-78
2022/06/17 01:26:05;;;;;;;0.50;0.40;;;16.20;99.90;;;;;;5075512;28;21032;-78
2022/06/17 01:28:32;;;;;;;0.50;0.40;;;16.20;99.90;;;;;;5074850;28;20531;-78
2022/06/17 01:31:01;;;;;;;0.50;0.40;;;16.20;99.90;;;;;;5075235;28;20534;-78
2022/06/17 01:33:30;;;;;;;0.50;0.40;;;16.20;99.90;;;;;;5076002;28;20527;-78
2022/06/17 01:36:00;;;;;;;0.50;0.30;;;16.20;99.90;;;;;;5075038;28;20480;-77
2022/06/17 01:38:28;;;;;;;0.50;0.40;;;16.10;99.90;;;;;;5075606;28;20442;-78
2022/06/17 01:40:59;;;;;;;0.50;0.40;;;16.00;99.90;;;;;;5077272;28;20479;-79
2022/06/17 01:43:31;;;;;;;0.50;0.40;;;15.90;99.90;;;;;;5077354;28;20525;-79
2022/06/17 01:46:02;;;;;;;0.50;0.40;;;15.80;99.90;;;;;;5076362;28;20456;-79
2022/06/17 01:48:36;;;;;;;0.50;0.30;;;15.70;99.90;;;;;;5077331;28;20473;-79
2022/06/17 01:51:05;;;;;;;0.50;0.40;;;15.70;99.90;;;;;;5088958;28;20437;-78
2022/06/17 01:53:38;;;;;;;0.50;0.40;;;15.60;99.90;;;;;;5078585;28;20460;-78
2022/06/17 01:56:11;;;;;;;0.50;0.40;;;15.70;99.90;;;;;;5075679;28;20559;-79
2022/06/17 01:58:44;;;;;;;0.50;0.40;;;15.70;99.90;;;;;;5077792;28;20448;-79
2022/06/17 02:01:12;;;;;;;0.50;0.40;;;15.70;99.90;;;;;;5088933;28;20449;-78
2022/06/17 02:03:45;;;;;;;0.50;0.40;;;15.60;99.90;;;;;;5082950;28;20536;-78
2022/06/17 02:06:17;;;;;;;0.50;0.33;;;15.50;99.90;;;;;;5092064;28;20527;-78
2022/06/17 02:08:44;;;;;;;0.90;0.83;;;15.50;99.90;;;;;;5095123;28;20467;-78
2022/06/17 02:11:13;;;;;;;0.50;0.40;;;15.60;99.90;;;;;;5096925;28;20420;-79
2022/06/17 02:13:40;;;;;;;0.50;0.40;;;15.60;99.90;;;;;;5095555;28;20440;-79
2022/06/17 02:16:09;;;;;;;0.50;0.40;;;15.70;99.90;;;;;;5096761;28;20530;-76
2022/06/17 02:18:38;;;;;;;0.50;0.40;;;15.70;99.90;;;;;;5089954;28;20935;-79
2022/06/17 02:21:10;;;;;;;0.50;0.40;;;15.70;99.90;;;;;;5080314;28;20433;-79
2022/06/17 02:23:38;;;;;;;0.50;0.40;;;15.70;99.90;;;;;;5077369;28;20842;-78
2022/06/17 02:26:08;;;;;;;0.87;0.87;;;15.70;99.90;;;;;;5076441;28;20467;-79
2022/06/17 02:28:37;;;;;;;0.50;0.40;;;15.70;99.90;;;;;;5075267;28;20464;-79
2022/06/17 02:31:08;;;;;;;0.50;0.40;;;15.70;99.90;;;;;;5076101;28;20478;-79
2022/06/17 02:33:36;;;;;;;0.50;0.40;;;15.70;99.90;;;;;;5076145;28;20427;-78
2022/06/17 02:36:10;;;;;;;0.50;0.40;;;15.60;99.90;;;;;;5075947;28;20552;-79
2022/06/17 02:38:38;;;;;;;0.50;0.40;;;15.60;99.90;;;;;;5076283;28;20898;-78
2022/06/17 02:41:12;;;;;;;0.50;0.40;;;15.60;99.90;;;;;;5075707;28;20443;-79
2022/06/17 02:43:44;;;;;;;0.50;0.33;;;15.60;99.90;;;;;;5075217;28;20770;-77
2022/06/17 02:46:15;;;;;;;0.50;0.40;;;15.50;99.90;;;;;;5074121;28;20547;-77
2022/06/17 02:48:44;;;;;;;0.50;0.30;;;15.50;99.90;;;;;;5074294;28;20493;-80
2022/06/17 02:51:13;;;;;;;0.50;0.40;;;15.40;99.90;;;;;;5073735;28;20515;-78
2022/06/17 02:53:42;;;;;;;0.50;0.40;;;15.40;99.90;;;;;;5072915;28;20432;-77
2022/06/17 02:56:16;;;;;;;0.50;0.30;;;15.40;99.90;;;;;;5073902;28;20472;-77
2022/06/17 02:58:55;;;;;;;0.50;0.40;;;15.30;99.90;;;;;;5073212;28;20487;-80
2022/06/17 03:01:25;;;;;;;0.50;0.40;;;15.30;99.90;;;;;;5073167;28;20945;-79
2022/06/17 03:03:54;;;;;;;0.50;0.40;;;15.20;99.90;;;;;;5072630;28;20809;-77
2022/06/17 03:06:26;;;;;;;0.50;0.40;;;15.20;99.90;;;;;;5075634;28;20826;-79
2022/06/17 03:08:55;;;;;;;0.50;0.40;;;15.20;99.90;;;;;;5074979;28;20431;-79
2022/06/17 03:11:22;;;;;;;0.50;0.40;;;15.20;99.90;;;;;;5076096;28;20535;-78
2022/06/17 03:13:54;;;;;;;0.50;0.40;;;15.20;99.90;;;;;;5074766;28;20445;-77
2022/06/17 03:16:22;;;;;;;0.50;0.40;;;15.10;99.90;;;;;;5074348;28;20460;-79
2022/06/17 03:18:53;;;;;;;0.50;0.40;;;15.10;99.90;;;;;;5073293;28;20434;-78
2022/06/17 03:21:23;;;;;;;0.50;0.40;;;15.10;99.90;;;;;;5074853;28;20520;-78
2022/06/17 03:23:58;;;;;;;0.50;0.40;;;15.10;99.90;;;;;;5074088;28;20813;-79
2022/06/17 03:26:29;;;;;;;2.10;2.00;;;15.00;99.90;;;;;;5073504;28;20546;-78
2022/06/17 03:28:59;;;;;;;0.50;0.30;;;15.00;99.90;;;;;;5073387;28;20434;-78
2022/06/17 03:31:36;;;;;;;0.50;0.40;;;15.00;99.90;;;;;;5072761;28;20527;-79
2022/06/17 03:34:06;;;;;;;0.50;0.40;;;14.90;99.90;;;;;;5073178;28;20531;-78
2022/06/17 03:36:37;;;;;;;0.50;0.40;;;15.00;99.90;;;;;;5072743;28;20466;-79
2022/06/17 03:39:08;;;;;;;0.50;0.30;;;15.00;99.90;;;;;;5072049;28;20503;-78
2022/06/17 03:41:39;;;;;;;0.50;0.40;;;15.00;99.90;;;;;;5072494;28;20472;-77
2022/06/17 03:44:13;;;;;;;0.50;0.40;;;15.00;99.90;;;;;;5072354;28;20535;-77
2022/06/17 03:46:46;;;;;;;0.50;0.40;;;14.90;99.90;;;;;;5072515;28;20835;-78
2022/06/17 03:49:19;;;;;;;0.50;0.40;;;14.90;99.90;;;;;;5072428;28;20416;-75
2022/06/17 03:51:46;;;;;;;0.50;0.40;;;15.00;99.90;;;;;;5072559;28;20452;-78
2022/06/17 03:54:14;;;;;;;0.50;0.40;;;15.00;99.90;;;;;;5072067;28;20442;-77
2022/06/17 03:56:50;;;;;;;0.50;0.40;;;15.00;99.90;;;;;;5072150;28;20613;-77
2022/06/17 03:59:22;;;;;;;0.50;0.40;;;15.00;99.90;;;;;;5071901;28;20467;-77
2022/06/17 04:01:54;;;;;;;0.50;0.40;;;15.10;99.90;;;;;;5072190;28;20420;-78
2022/06/17 04:04:24;;;;;;;1.17;1.10;;;15.10;99.90;;;;;;5071936;28;20524;-78
2022/06/17 04:06:54;;;;;;;0.50;0.40;;;15.20;99.90;;;;;;5071971;28;20416;-78
2022/06/17 04:09:23;;;;;;;0.50;0.40;;;15.30;99.90;;;;;;5071836;28;20535;-77
2022/06/17 04:11:54;;;;;;;0.50;0.40;;;15.30;99.90;;;;;;5072177;28;21007;-77
2022/06/17 04:14:27;;;;;;;0.50;0.30;;;15.40;99.90;;;;;;5071638;28;20522;-77
2022/06/17 04:17:01;;;;;;;0.50;0.40;;;15.30;99.90;;;;;;5071675;28;20537;-77
2022/06/17 04:19:29;;;;;;;0.50;0.40;;;15.30;99.90;;;;;;5071755;28;20767;-79
2022/06/17 04:22:02;;;;;;;0.50;0.40;;;15.40;99.90;;;;;;5072275;28;20556;-78
2022/06/17 04:24:30;;;;;;;0.50;0.40;;;15.40;99.90;;;;;;5071868;28;20504;-78
2022/06/17 04:27:01;;;;;;;0.50;0.40;;;15.40;99.90;;;;;;5072081;28;20501;-78
2022/06/17 04:29:36;;;;;;;0.50;0.40;;;15.40;99.90;;;;;;5071712;28;20544;-78
2022/06/17 04:32:11;;;;;;;0.50;0.40;;;15.40;99.90;;;;;;5071536;28;20424;-78
2022/06/17 04:34:38;;;;;;;0.50;0.40;;;15.30;99.90;;;;;;5072348;28;20899;-78
2022/06/17 04:37:12;;;;;;;0.50;0.40;;;15.30;99.90;;;;;;5071482;28;20956;-78
2022/06/17 04:39:45;;;;;;;0.50;0.33;;;15.30;99.90;;;;;;5071668;28;20436;-78
2022/06/17 04:42:17;;;;;;;0.50;0.37;;;15.30;99.90;;;;;;5071903;28;20433;-77
2022/06/17 04:44:45;;;;;;;0.50;0.40;;;15.30;99.90;;;;;;5071590;28;20798;-78
2022/06/17 04:47:15;;;;;;;0.50;0.40;;;15.20;99.90;;;;;;5071525;28;21026;-77
2022/06/17 04:49:46;;;;;;;0.50;0.37;;;15.10;99.90;;;;;;5071572;28;20975;-78
2022/06/17 04:52:27;;;;;;;0.50;0.40;;;15.20;99.90;;;;;;5071871;28;20428;-77
2022/06/17 04:54:56;;;;;;;0.50;0.30;;;15.30;99.90;;;;;;5071426;28;20461;-79
2022/06/17 04:57:23;;;;;;;0.70;0.70;;;15.40;99.90;;;;;;5071635;28;20478;-78
2022/06/17 04:59:52;;;;;;;0.50;0.40;;;15.50;99.90;;;;;;5071845;28;20524;-78
2022/06/17 05:02:22;;;;;;;0.50;0.40;;;15.60;99.90;;;;;;5071591;28;21002;-74
2022/06/17 05:04:51;;;;;;;0.50;0.40;;;15.60;99.90;;;;;;5071478;28;20566;-78
2022/06/17 05:07:18;;;;;;;0.50;0.30;;;15.80;99.90;;;;;;5071617;28;20485;-78
2022/06/17 05:09:49;;;;;;;0.50;0.40;;;16.00;99.90;;;;;;5071553;28;20438;-78
2022/06/17 05:12:21;;;;;;;0.50;0.40;;;16.20;99.90;;;;;;5071043;28;20848;-78
2022/06/17 05:14:52;;;;;;;0.50;0.40;;;16.40;99.90;;;;;;5072009;28;20547;-78
2022/06/17 05:17:19;;;;;;;0.50;0.40;;;16.50;99.90;;;;;;5071092;28;20503;-76
2022/06/17 05:19:48;;;;;;;0.50;0.30;;;16.70;99.90;;;;;;5070903;28;20469;-79
2022/06/17 05:22:25;;;;;;;0.50;0.30;;;16.90;99.90;;;;;;5071745;28;20527;-79
2022/06/17 05:24:52;;;;;;;0.50;0.40;;;17.10;99.90;;;;;;5071551;28;20570;-78
2022/06/17 05:27:19;;;;;;;0.50;0.30;;;17.30;99.90;;;;;;5072991;28;20997;-78
2022/06/17 05:29:46;;;;;;;0.50;0.40;;;17.60;99.90;;;;;;5075280;28;20942;-78
2022/06/17 05:32:17;;;;;;;0.50;0.40;;;17.80;99.90;;;;;;5075843;28;20529;-79
2022/06/17 05:34:44;;;;;;;0.50;0.40;;;18.10;99.90;;;;;;5074632;28;20488;-79
2022/06/17 05:37:11;;;;;;;0.50;0.40;;;18.40;99.90;;;;;;5075006;28;20447;-75
2022/06/17 05:39:37;;;;;;;0.60;0.50;;;18.60;99.90;;;;;;5075163;28;20440;-76
2022/06/17 05:42:06;;;;;;;0.50;0.37;;;18.80;99.90;;;;;;5074782;28;20485;-78
2022/06/17 05:44:33;;;;;;;0.50;0.30;;;18.90;99.90;;;;;;5075004;28;20471;-78
2022/06/17 05:47:00;;;;;;;0.50;0.33;;;19.00;99.90;;;;;;5074855;28;20602;-78
2022/06/17 05:49:29;;;;;;;0.50;0.37;;;19.00;99.90;;;;;;5074845;28;20882;-79
2022/06/17 05:51:55;;;;;;;0.50;0.30;;;19.10;99.90;;;;;;5075537;28;21021;-78
2022/06/17 05:54:22;;;;;;;0.50;0.30;;;19.20;99.90;;;;;;5074110;28;20526;-76
2022/06/17 05:56:49;;;;;;;0.50;0.40;;;19.30;99.90;;;;;;5075069;28;20515;-78
2022/06/17 05:59:17;;;;;;;0.60;0.40;;;19.50;99.90;;;;;;5087643;22;20492;-84
2022/06/17 06:01:44;;;;;;;0.50;0.40;;;19.80;99.90;;;;;;5067224;28;20503;-83
2022/06/17 06:04:11;;;;;;;1.07;1.03;;;20.00;99.90;;;;;;5075553;28;20941;-83
2022/06/17 06:06:39;;;;;;;0.50;0.30;;;20.20;99.90;;;;;;5080962;28;20506;-82
2022/06/17 06:09:06;;;;;;;1.10;0.73;;;20.30;99.90;;;;;;5080612;28;20458;-83
2022/06/17 06:11:33;;;;;;;0.50;0.30;;;20.30;99.90;;;;;;5080621;28;20432;-83
2022/06/17 06:14:00;;;;;;;0.50;0.30;;;20.50;99.90;;;;;;5079833;28;20467;-83
2022/06/17 06:16:27;;;;;;;0.50;0.30;;;20.60;99.90;;;;;;5079462;28;20468;-83
2022/06/17 06:18:54;;;;;;;2.10;2.00;;;20.70;99.90;;;;;;5078490;28;20483;-84
2022/06/17 06:21:20;;;;;;;0.50;0.30;;;20.80;99.90;;;;;;5081528;28;20447;-83
2022/06/17 06:23:49;;;;;;;0.50;0.30;;;20.90;99.90;;;;;;5081977;28;20975;-84
2022/06/17 06:26:20;;;;;;;0.50;0.30;;;21.00;99.90;;;;;;5080546;28;20571;-82
2022/06/17 06:28:47;;;;;;;0.50;0.30;;;21.10;99.90;;;;;;5081259;28;20468;-83
2022/06/17 06:31:25;;;;;;;0.50;0.40;;;21.20;99.90;;;;;;5081488;28;20452;-83
2022/06/17 06:33:52;;;;;;;0.50;0.30;;;21.20;99.90;;;;;;5078128;28;20422;-83
2022/06/17 06:36:19;;;;;;;0.50;0.30;;;21.20;99.90;;;;;;5078270;28;20472;-83
2022/06/17 06:38:48;;;;;;;0.50;0.30;;;21.10;99.90;;;;;;5076916;28;20863;-83
2022/06/17 06:41:15;;;;;;;0.50;0.37;;;21.10;99.90;;;;;;5078590;28;20531;-81
2022/06/17 06:43:42;;;;;;;0.50;0.30;;;21.10;99.90;;;;;;5075506;28;20535;-82
2022/06/17 06:46:12;;;;;;;0.50;0.30;;;21.20;99.90;;;;;;5075350;28;20480;-82
2022/06/17 06:48:40;;;;;;;0.50;0.30;;;21.60;99.90;;;;;;5074597;28;20458;-82
2022/06/17 06:51:07;;;;;;;0.50;0.30;;;22.50;99.90;;;;;;5075163;28;20439;-82
2022/06/17 06:53:34;;;;;;;0.50;0.33;;;23.70;99.90;;;;;;5074601;28;20444;-83
2022/06/17 06:56:03;;;;;;;0.50;0.40;;;25.70;97.30;;;;;;5074976;28;20464;-83
2022/06/17 06:58:30;;;;;;;0.60;0.43;;;27.40;82.90;;;;;;5076056;28;20433;-80
2022/06/17 07:00:58;;;;;;;1.10;0.60;;;28.20;79.90;;;;;;5075541;28;20467;-81
2022/06/17 07:03:26;;;;;;;0.50;0.30;;;29.40;72.00;;;;;;5075738;28;20527;-83
2022/06/17 07:05:56;;;;;;;0.60;0.40;;;29.70;66.40;;;;;;5075746;28;21061;-80
2022/06/17 07:08:24;;;;;;;0.50;0.30;;;30.40;62.80;;;;;;5075274;28;20444;-81
2022/06/17 07:10:53;;;;;;;0.50;0.30;;;31.40;61.10;;;;;;5075890;28;20475;-81
2022/06/17 07:13:22;;;;;;;0.70;0.60;;;32.00;58.10;;;;;;5076104;28;20476;-81
2022/06/17 07:15:50;;;;;;;0.50;0.43;;;32.20;55.80;;;;;;5077904;28;20432;-81
2022/06/17 07:18:20;;;;;;;0.50;0.30;;;32.40;57.10;;;;;;5076469;28;20436;-81
2022/06/17 07:20:50;;;;;;;1.33;0.70;;;32.90;55.50;;;;;;5077627;28;20460;-81
2022/06/17 07:23:19;;;;;;;0.50;0.30;;;33.00;53.70;;;;;;5077285;28;20508;-80
2022/06/17 07:25:47;;;;;;;0.50;0.30;;;33.00;53.00;;;;;;5075649;28;20476;-81
2022/06/17 07:28:15;;;;;;;0.50;0.40;;;33.40;51.60;;;;;;5076664;28;20527;-81
2022/06/17 07:30:45;;;;;;;0.50;0.30;;;33.70;51.90;;;;;;5076826;28;20521;-81
2022/06/17 07:33:12;;;;;;;0.50;0.30;;;34.50;50.70;;;;;;5076684;28;20490;-80
2022/06/17 07:35:40;;;;;;;0.50;0.30;;;34.70;49.50;;;;;;5075590;28;20515;-83
2022/06/17 07:40:54;;;;;;;0.50;0.30;;;34.60;49.60;;;;;;5077828;28;20450;-82
2022/06/17 07:43:21;;;;;;;0.50;0.30;;;34.70;50.00;;;;;;5076666;28;20436;-81
2022/06/17 07:45:49;;;;;;;0.50;0.30;;;34.60;49.40;;;;;;5075345;28;20507;-80
2022/06/17 07:48:18;;;;;;;0.50;0.40;;;34.30;49.40;;;;;;5074947;28;20490;-80
2022/06/17 07:50:45;;;;;;;0.50;0.30;;;34.30;49.30;;;;;;5074660;28;20462;-80
2022/06/17 07:53:14;;;;;;;0.50;0.40;;;34.90;49.80;;;;;;5075186;28;20500;-81
2022/06/17 07:55:42;;;;;;;1.73;1.53;;;35.40;48.00;;;;;;5075472;28;20428;-80
2022/06/17 07:58:11;;;;;;;0.50;0.30;;;35.80;47.30;;;;;;5075742;28;20503;-82
2022/06/17 08:00:41;;;;;;;0.50;0.30;;;35.70;48.00;;;;;;5075326;28;20936;-80
2022/06/17 08:03:10;;;;;;;0.50;0.30;;;35.00;47.50;;;;;;5075212;28;20447;-80
2022/06/17 08:05:37;;;;;;;0.50;0.40;;;34.10;48.30;;;;;;5074775;28;20436;-81
2022/06/17 08:08:07;;;;;;;0.50;0.30;;;33.90;48.60;;;;;;5075078;28;20464;-81
2022/06/17 08:10:36;;;;;;;0.50;0.30;;;34.10;50.70;;;;;;5076301;28;20456;-81
2022/06/17 08:13:03;;;;;;;0.50;0.30;;;34.60;49.20;;;;;;5076163;28;20527;-81
2022/06/17 08:15:31;;;;;;;0.50;0.30;;;34.80;47.90;;;;;;5077508;28;20835;-82
2022/06/17 08:17:58;;;;;;;0.50;0.30;;;34.20;49.10;;;;;;5077385;28;20478;-81
2022/06/17 08:20:28;;;;;;;0.50;0.30;;;34.70;48.80;;;;;;5076626;28;20463;-82
2022/06/17 08:22:56;;;;;;;0.50;0.30;;;35.00;47.80;;;;;;5077784;28;20968;-81
2022/06/17 08:25:23;;;;;;;0.50;0.40;;;35.60;47.50;;;;;;5077502;28;20512;-82
2022/06/17 08:27:53;;;;;;;0.50;0.30;;;36.20;46.40;;;;;;5077397;28;20567;-82
2022/06/17 08:30:22;;;;;;;0.50;0.40;;;35.90;46.50;;;;;;5077087;28;21040;-82
2022/06/17 08:32:53;;;;;;;0.50;0.30;;;35.00;46.60;;;;;;5077528;28;20443;-82
2022/06/17 08:35:22;;;;;;;0.50;0.30;;;33.90;47.80;;;;;;5077066;28;20470;-82
2022/06/17 08:37:54;;;;;;;0.50;0.30;;;33.70;49.50;;;;;;5076327;28;20500;-81
2022/06/17 08:40:43;;;;;;;0.50;0.40;;;33.60;48.70;;;;;;5076585;28;21005;-82
2022/06/17 08:43:25;;;;;;;0.50;0.30;;;33.70;48.10;;;;;;5076206;28;20977;-82
2022/06/17 08:46:04;;;;;;;0.50;0.33;;;32.60;49.80;;;;;;5075681;28;20566;-81
2022/06/17 08:48:40;;;;;;;4.23;0.83;;;32.50;49.40;;;;;;5075348;28;20520;-83
2022/06/17 08:51:22;;;;;;;0.90;0.73;;;32.20;50.30;;;;;;5076136;28;20420;-83
2022/06/17 08:54:18;;;;;;;0.50;0.30;;;31.90;49.60;;;;;;5075778;28;20527;-81
2022/06/17 08:56:50;;;;;;;0.50;0.30;;;32.40;50.30;;;;;;5069281;28;20969;-81
2022/06/17 08:59:31;;;;;;;0.50;0.30;;;33.20;49.10;;;;;;5075066;28;20492;-82
2022/06/17 09:02:06;;;;;;;0.50;0.43;;;33.70;48.20;;;;;;5076968;28;20515;-82
2022/06/17 09:04:51;;;;;;;0.50;0.30;;;34.10;46.40;;;;;;5079837;28;20757;-82
2022/06/17 09:07:28;;;;;;;0.50;0.30;;;33.60;47.80;;;;;;5078347;28;20467;-82
2022/06/17 09:10:28;;;;;;;4.30;2.40;;;34.10;47.30;;;;;;5078730;28;20543;-81
2022/06/17 09:13:09;;;;;;;0.50;0.30;;;33.90;47.70;;;;;;5076847;28;20847;-82
2022/06/17 09:15:41;;;;;;;0.50;0.30;;;33.30;48.50;;;;;;5079433;28;20519;-82
2022/06/17 09:18:18;;;;;;;0.50;0.30;;;33.20;47.40;;;;;;5077633;28;20432;-82
2022/06/17 09:20:48;;;;;;;0.50;0.43;;;33.00;48.20;;;;;;5080134;28;20491;-82
2022/06/17 09:23:22;;;;;;;0.50;0.40;;;33.60;48.70;;;;;;5078851;28;20471;-83
2022/06/17 09:25:52;;;;;;;0.50;0.40;;;32.50;48.50;;;;;;5079127;28;20435;-83
2022/06/17 09:28:24;;;;;;;0.50;0.30;;;32.00;49.60;;;;;;5079778;28;20440;-81
2022/06/17 09:30:56;;;;;;;0.70;0.40;;;32.90;50.20;;;;;;5080902;28;21031;-82
2022/06/17 09:33:29;;;;;;;0.50;0.30;;;34.10;48.00;;;;;;5078475;28;20428;-81
2022/06/17 09:36:01;;;;;;;0.50;0.40;;;34.50;46.90;;;;;;5078445;28;20854;-82
2022/06/17 09:38:35;;;;;;;0.50;0.30;;;34.80;46.70;;;;;;5079768;28;20500;-82
2022/06/17 09:41:09;;;;;;;0.50;0.30;;;34.70;47.60;;;;;;5080143;28;20459;-82
2022/06/17 09:43:44;;;;;;;0.50;0.30;;;35.60;46.10;;;;;;5081230;28;20558;-83
2022/06/17 09:46:18;;;;;;;0.50;0.30;;;36.30;44.10;;;;;;5080667;28;20835;-84
2022/06/17 09:48:50;;;;;;;0.50;0.30;;;36.10;44.80;;;;;;5079462;28;20470;-82
2022/06/17 09:51:21;;;;;;;0.40;0.30;;;36.80;43.70;;;;;;5079518;28;20455;-82
2022/06/17 09:53:52;;;;;;;0.50;0.30;;;36.40;44.50;;;;;;5080735;28;20436;-82
2022/06/17 09:56:26;;;;;;;0.43;0.37;;;37.00;43.80;;;;;;5080924;28;20504;-82
2022/06/17 09:58:59;;;;;;;0.50;0.30;;;37.70;43.40;;;;;;5080366;28;20504;-81
2022/06/17 10:01:26;;;;;;;0.40;0.30;;;37.90;43.00;;;;;;5081486;28;20847;-82
2022/06/17 10:03:53;;;;;;;0.40;0.30;;;37.90;42.10;;;;;;5079697;28;20464;-79
2022/06/17 10:06:32;;;;;;;0.60;0.60;;;37.90;41.90;;;;;;5078764;28;20841;-82
2022/06/17 10:09:11;;;;;;;0.40;0.30;;;37.30;42.20;;;;;;5080537;28;21011;-82
2022/06/17 10:11:45;;;;;;;0.40;0.30;;;37.40;44.00;;;;;;5080446;28;20478;-80
2022/06/17 10:14:22;;;;;;;0.50;0.40;;;37.10;43.30;;;;;;5077985;28;20455;-82
2022/06/17 10:19:54;;;;;;;0.50;0.30;;;35.70;43.60;;;;;;5079645;28;20431;-84
2022/06/17 10:22:37;;;;;;;0.50;0.30;;;35.60;44.60;;;;;;5079329;28;20797;-82
2022/06/17 10:25:22;;;;;;;0.50;0.40;;;35.80;44.20;;;;;;5079562;28;20531;-84
2022/06/17 10:28:02;;;;;;;0.50;0.37;;;35.60;44.00;;;;;;5078718;28;20499;-83
2022/06/17 10:30:40;;;;;;;0.40;0.30;;;35.70;43.90;;;;;;5079223;28;20464;-82
2022/06/17 10:33:11;;;;;;;0.50;0.30;;;36.20;44.70;;;;;;5079501;28;20425;-82
2022/06/17 10:35:41;;;;;;;0.40;0.30;;;37.40;43.50;;;;;;5079209;28;20425;-83
2022/06/17 10:38:13;;;;;;;1.20;0.97;;;37.30;42.90;;;;;;5079110;28;20464;-81
2022/06/17 10:40:42;;;;;;;2.97;1.17;;;36.30;43.80;;;;;;5080785;28;20532;-84
2022/06/17 10:43:13;;;;;;;0.50;0.30;;;36.00;43.40;;;;;;5080121;28;20437;-82
2022/06/17 10:45:41;;;;;;;0.50;0.30;;;35.50;43.50;;;;;;5079188;28;20496;-82
2022/06/17 10:48:17;;;;;;;7.33;1.73;;;35.60;44.60;;;;;;5079207;28;20486;-82
2022/06/17 10:50:44;;;;;;;0.50;0.30;;;35.20;44.10;;;;;;5080382;28;20538;-81
2022/06/17 10:53:16;;;;;;;0.50;0.40;;;35.80;44.10;;;;;;5079586;28;20508;-82
2022/06/17 10:55:46;;;;;;;0.50;0.30;;;35.80;43.60;;;;;;5079201;28;20463;-82
2022/06/17 10:58:20;;;;;;;0.40;0.30;;;36.00;44.00;;;;;;5079528;28;20460;-82
2022/06/17 11:00:57;;;;;;;0.60;0.53;;;37.10;43.70;;;;;;5079591;28;20558;-82
2022/06/17 11:03:31;;;;;;;0.50;0.50;;;37.60;42.90;;;;;;5080149;28;20516;-82
2022/06/17 11:06:15;;;;;;;0.50;0.50;;;36.60;42.70;;;;;;5078579;28;20464;-81
2022/06/17 11:08:56;;;;;;;2.27;1.33;;;35.50;43.50;;;;;;5078610;28;20887;-81
2022/06/17 11:14:21;;;;;;;0.40;0.30;;;37.10;43.80;;;;;;5079231;28;20396;-82
2022/06/17 11:16:48;;;;;;;1.13;1.03;;;37.90;42.20;;;;;;5079556;28;20475;-81
2022/06/17 11:19:19;;;;;;;0.40;0.30;;;38.20;40.80;;;;;;5079621;28;20491;-81
2022/06/17 11:21:50;;;;;;;0.50;0.40;;;38.60;39.60;;;;;;5080185;28;20467;-82
2022/06/17 11:24:24;;;;;;;0.40;0.30;;;37.50;39.80;;;;;;5079125;28;20518;-82
2022/06/17 11:27:06;;;;;;;0.40;0.30;;;37.00;40.60;;;;;;5078619;28;20474;-82
2022/06/17 11:29:41;;;;;;;0.50;0.40;;;36.90;42.10;;;;;;5077988;28;20471;-83
2022/06/17 11:32:32;;;;;;;0.50;0.50;;;35.50;41.30;;;;;;5078531;28;21052;-82
2022/06/17 11:35:01;;;;;;;0.50;0.30;;;34.10;42.80;;;;;;5074335;28;20471;-82
2022/06/17 11:37:30;;;;;;;0.50;0.47;;;34.50;44.20;;;;;;5077548;28;20429;-81
2022/06/17 11:40:14;;;;;;;0.50;0.40;;;34.30;44.60;;;;;;5078309;28;20462;-82
2022/06/17 11:42:49;;;;;;;0.50;0.30;;;33.50;45.40;;;;;;5077487;28;20523;-80
2022/06/17 11:45:20;;;;;;;0.60;0.40;;;33.60;45.00;;;;;;5078003;28;20558;-82
2022/06/17 11:47:52;;;;;;;0.50;0.30;;;34.10;46.00;;;;;;5077879;28;20472;-81
2022/06/17 11:50:24;;;;;;;0.47;0.30;;;34.90;45.50;;;;;;5079193;28;20468;-82
2022/06/17 11:52:59;;;;;;;0.50;0.40;;;35.10;44.20;;;;;;5080853;28;20458;-82
2022/06/17 11:55:28;;;;;;;0.40;0.30;;;35.30;44.90;;;;;;5084836;28;20427;-82
2022/06/17 11:57:55;;;;;;;0.40;0.30;;;35.40;43.90;;;;;;5082884;28;20447;-82
2022/06/17 12:00:28;;;;;;;0.50;0.40;;;36.20;43.50;;;;;;5080879;28;20503;-83
2022/06/17 12:02:59;;;;;;;0.77;0.77;;;37.20;42.00;;;;;;5079665;28;20416;-83
2022/06/17 12:05:29;;;;;;;0.50;0.43;;;36.30;41.50;;;;;;5078445;28;20464;-82
2022/06/17 12:08:01;;;;;;;0.40;0.30;;;36.40;41.30;;;;;;5077992;28;20502;-84
2022/06/17 12:10:38;;;;;;;0.50;0.30;;;35.10;42.10;;;;;;5079613;28;21058;-84
2022/06/17 12:13:13;;;;;;;0.50;0.40;;;34.70;43.50;;;;;;5080739;28;20495;-85
2022/06/17 12:15:45;;;;;;;0.50;0.40;;;35.00;42.80;;;;;;5081403;28;20466;-82
2022/06/17 12:18:18;;;;;;;0.40;0.30;;;35.20;43.10;;;;;;5079283;28;20524;-85
2022/06/17 12:20:53;;;;;;;0.50;0.50;;;35.40;42.70;;;;;;5078981;28;20507;-81
2022/06/17 12:23:27;;;;;;;0.40;0.30;;;35.50;43.30;;;;;;5076822;28;20446;-85
2022/06/17 12:26:00;;;;;;;0.40;0.30;;;35.80;42.50;;;;;;5076832;28;20527;-83
2022/06/17 12:28:37;;;;;;;0.40;0.30;;;36.60;42.10;;;;;;5076142;28;20522;-85
2022/06/17 12:31:11;;;;;;;0.50;0.40;;;36.00;41.60;;;;;;5077463;28;20518;-83
2022/06/17 12:33:42;;;;;;;0.50;0.30;;;35.30;41.90;;;;;;5077152;28;20447;-85
2022/06/17 12:36:17;;;;;;;0.50;0.30;;;35.40;42.60;;;;;;5077122;28;20527;-83
2022/06/17 12:38:53;;;;;;;0.70;0.70;;;35.50;42.80;;;;;;5075791;28;20446;-85
2022/06/17 12:41:27;;;;;;;0.40;0.40;;;35.50;43.00;;;;;;5076911;28;20797;-83
2022/06/17 12:44:10;;;;;;;0.50;0.30;;;35.50;43.00;;;;;;5076820;28;20854;-82
2022/06/17 12:46:45;;;;;;;0.40;0.30;;;35.80;42.60;;;;;;5076150;28;20508;-83
2022/06/17 12:55:05;;;;;;;0.50;0.50;;;35.10;44.90;;;;;;5076622;28;20498;-85
2022/06/17 12:57:39;;;;;;;0.40;0.30;;;35.10;43.20;;;;;;5078060;28;20438;-86
2022/06/17 13:00:08;;;;;;;0.70;0.60;;;35.00;43.60;;;;;;5076482;28;20495;-85
2022/06/17 13:02:51;;;;;;;0.50;0.30;;;34.50;42.80;;;;;;5077154;28;20436;-85
2022/06/17 13:05:24;;;;;;;0.60;0.47;;;34.60;43.10;;;;;;5078177;28;20504;-83
2022/06/17 13:08:12;;;;;;;0.50;0.30;;;34.30;44.00;;;;;;5077090;28;20480;-84
2022/06/17 13:10:48;;;;;;;0.50;0.30;;;34.50;44.50;;;;;;5076495;28;20457;-81
2022/06/17 13:13:38;;;;;;;0.40;0.30;;;34.40;43.40;;;;;;5076682;28;20450;-85
2022/06/17 13:16:10;;;;;;;0.50;0.30;;;34.50;44.30;;;;;;5077461;28;20866;-84
2022/06/17 13:18:46;;;;;;;0.50;0.30;;;34.60;44.20;;;;;;5076016;28;20835;-84
2022/06/17 13:21:22;;;;;;;0.50;0.40;;;34.90;44.40;;;;;;5077157;28;20486;-83
2022/06/17 13:23:55;;;;;;;0.50;0.50;;;35.30;42.70;;;;;;5077029;28;20519;-83